Time;durP1;ratioP1;P1;durP2;ratioP2;P2;SDS_P1;SDS_P2;PMS_P1;PMS_P2;Temp;Humidity;BMP_temperature;BMP_pressure;BME280_temperature;BME280_humidity;BME280_pressure;Samples;Min_cycle;Max_cycle;Signal;HPM_P1;HPM_P2
2022/12/04 00:02:25;;;;;;;40.17;14.80;;;;;;;0.37;81.25;101724.72;5052534;28;20450;-77
2022/12/04 00:04:50;;;;;;;38.40;14.80;;;;;;;0.37;80.84;101719.59;5061740;28;20028;-77
2022/12/04 00:07:16;;;;;;;42.03;14.97;;;;;;;0.38;81.05;101718.78;5070579;28;20037;-77
2022/12/04 00:09:41;;;;;;;40.43;14.57;;;;;;;0.38;80.85;101716.22;5071034;28;20039;-77
2022/12/04 00:12:06;;;;;;;41.80;15.60;;;;;;;0.37;80.93;101719.59;5071638;28;20020;-77
2022/12/04 00:14:31;;;;;;;44.87;15.23;;;;;;;0.35;81.06;101716.13;5072050;28;20024;-77
2022/12/04 00:16:57;;;;;;;41.27;15.03;;;;;;;0.36;81.11;101717.00;5072300;28;20103;-77
2022/12/04 00:19:22;;;;;;;43.93;15.83;;;;;;;0.34;81.40;101709.28;5072452;28;20052;-76
2022/12/04 00:21:49;;;;;;;44.07;15.77;;;;;;;0.32;80.78;101712.63;5072372;28;20032;-77
2022/12/04 00:24:14;;;;;;;40.37;15.37;;;;;;;0.30;81.07;101710.03;5066517;28;20106;-77
2022/12/04 00:26:39;;;;;;;41.33;15.70;;;;;;;0.32;81.06;101708.38;5072504;28;20460;-77
2022/12/04 00:29:04;;;;;;;46.33;15.67;;;;;;;0.32;81.16;101715.16;5072318;28;20043;-77
2022/12/04 00:31:30;;;;;;;41.43;14.90;;;;;;;0.29;81.22;101714.25;5075481;28;20378;-77
2022/12/04 00:33:56;;;;;;;38.87;14.57;;;;;;;0.29;81.61;101705.72;5073183;28;20032;-77
2022/12/04 00:36:24;;;;;;;44.57;16.37;;;;;;;0.30;81.10;101704.91;5078194;28;20112;-77
2022/12/04 00:38:50;;;;;;;44.47;15.80;;;;;;;0.31;81.29;101704.09;5066148;28;20024;-77
2022/12/04 00:41:17;;;;;;;39.83;14.77;;;;;;;0.30;80.73;101707.47;5065660;28;20115;-77
2022/12/04 00:43:42;;;;;;;38.27;14.83;;;;;;;0.28;81.22;101703.97;5070899;28;20089;-77
2022/12/04 00:46:08;;;;;;;38.47;14.83;;;;;;;0.27;80.98;101702.25;5071618;28;20095;-77
2022/12/04 00:48:33;;;;;;;43.30;15.63;;;;;;;0.28;81.08;101698.88;5069164;28;20033;-77
2022/12/04 00:51:14;;;;;;;38.73;15.10;;;;;;;0.28;81.15;101702.28;5071860;28;20060;-77
2022/12/04 00:53:39;;;;;;;42.93;15.37;;;;;;;0.28;81.26;101697.16;5075480;28;20145;-77
2022/12/04 00:56:07;;;;;;;41.87;16.07;;;;;;;0.28;80.84;101704.84;5071488;28;20042;-77
2022/12/04 00:58:32;;;;;;;41.73;15.77;;;;;;;0.27;80.93;101702.25;5072480;28;20103;-77
2022/12/04 01:01:09;;;;;;;42.93;15.63;;;;;;;0.28;81.16;101699.72;5075094;28;20104;-77
2022/12/04 01:03:36;;;;;;;41.00;15.33;;;;;;;0.29;81.28;101700.59;5072576;28;20051;-77
2022/12/04 01:06:02;;;;;;;40.97;15.17;;;;;;;0.27;81.14;101702.25;5075142;28;20096;-76
2022/12/04 01:08:27;;;;;;;40.20;14.20;;;;;;;0.24;80.96;101697.03;5075006;28;20032;-77
2022/12/04 01:10:53;;;;;;;36.43;14.20;;;;;;;0.23;81.36;101700.41;5075092;28;20024;-77
2022/12/04 01:13:18;;;;;;;38.80;14.80;;;;;;;0.24;81.46;101713.25;5074358;28;20040;-77
2022/12/04 01:15:43;;;;;;;39.70;14.37;;;;;;;0.23;81.27;101708.09;5072792;28;20055;-77
2022/12/04 01:18:10;;;;;;;40.53;15.97;;;;;;;0.24;81.52;101705.59;5074863;28;20052;-77
2022/12/04 01:20:36;;;;;;;45.00;16.60;;;;;;;0.24;81.46;101705.59;5074811;28;20095;-77
2022/12/04 01:23:01;;;;;;;42.70;15.73;;;;;;;0.24;80.85;101715.81;5074473;28;20526;-77
2022/12/04 01:25:26;;;;;;;45.13;15.87;;;;;;;0.23;81.36;101710.63;5074819;28;20103;-77
2022/12/04 01:27:52;;;;;;;37.80;14.80;;;;;;;0.22;81.04;101714.03;5073013;28;20032;-77
2022/12/04 01:30:17;;;;;;;39.60;15.30;;;;;;;0.22;81.27;101712.34;5074656;28;20456;-77
2022/12/04 01:32:42;;;;;;;42.27;15.90;;;;;;;0.20;80.79;101711.41;5074670;28;20021;-77
2022/12/04 01:35:08;;;;;;;42.00;15.73;;;;;;;0.20;81.64;101711.41;5074581;28;20103;-77
2022/12/04 01:37:33;;;;;;;39.37;15.93;;;;;;;0.22;81.40;101721.69;5075155;28;20111;-77
2022/12/04 01:39:59;;;;;;;37.53;14.10;;;;;;;0.22;81.68;101716.56;5081262;28;20028;-77
2022/12/04 01:42:24;;;;;;;41.37;14.73;;;;;;;0.23;81.21;101713.19;5071545;28;20373;-77
2022/12/04 01:45:37;;;;;;;39.67;15.80;;;;;;;0.24;81.63;101702.13;5074128;28;20079;-77
2022/12/04 01:48:08;;;;;;;;;;;;;;;0.27;81.36;101704.81;5056982;28;20032;-77
2022/12/04 01:50:34;;;;;;;42.42;16.33;;;;;;;0.24;81.38;101700.47;5095236;28;19918;-77
2022/12/04 01:52:59;;;;;;;39.47;15.40;;;;;;;0.22;81.67;101693.53;5073753;28;20025;-77
2022/12/04 01:55:25;;;;;;;36.37;14.43;;;;;;;0.23;81.28;101697.84;5068014;28;20525;-77
2022/12/04 01:57:50;;;;;;;40.87;14.83;;;;;;;0.23;81.41;101690.16;5093803;28;20035;-77
2022/12/04 02:00:16;;;;;;;38.63;15.23;;;;;;;0.24;81.46;101689.34;5094917;28;20081;-77
2022/12/04 02:02:45;;;;;;;39.47;15.23;;;;;;;0.23;81.31;101691.06;5079597;28;20032;-77
2022/12/04 02:05:17;;;;;;;45.07;15.77;;;;;;;0.24;81.30;101695.34;5074334;28;20025;-77
2022/12/04 02:07:45;;;;;;;38.30;15.27;;;;;;;0.21;81.06;101690.13;5091993;28;20039;-77
2022/12/04 02:10:12;;;;;;;40.33;15.07;;;;;;;0.22;81.30;101696.09;5092518;28;20035;-77
2022/12/04 02:12:42;;;;;;;43.17;16.30;;;;;;;0.23;81.46;101700.41;5069796;28;20064;-77
2022/12/04 02:15:25;;;;;;;37.50;14.80;;;;;;;0.23;81.57;101702.97;5054360;28;20083;-77
2022/12/04 02:18:15;;;;;;;39.57;15.40;;;;;;;0.26;81.52;101695.38;5072324;28;20028;-77
2022/12/04 02:21:01;;;;;;;40.60;16.03;;;;;;;0.28;80.80;101698.88;5074248;28;20506;-77
2022/12/04 02:23:53;;;;;;;40.13;15.80;;;;;;;0.24;81.60;101695.34;5084730;28;20035;-77
2022/12/04 02:26:46;;;;;;;40.70;16.58;;;;;;;0.26;81.22;101703.06;5060496;28;20124;-77
2022/12/04 02:29:27;;;;;;;42.97;16.83;;;;;;;0.24;80.63;101687.66;5069604;28;20032;-77
2022/12/04 02:32:02;;;;;;;40.83;16.03;;;;;;;0.24;81.11;101691.91;5053997;28;20029;-77
2022/12/04 02:34:34;;;;;;;41.63;16.13;;;;;;;0.24;81.57;101691.91;5064603;28;20023;-77
2022/12/04 02:37:02;;;;;;;;;;;;;;;0.26;81.02;101692.81;5085923;28;20024;-76
2022/12/04 02:39:34;;;;;;;39.97;15.83;;;;;;;0.22;80.87;101683.31;5065139;28;19919;-77
2022/12/04 02:42:10;;;;;;;41.17;15.23;;;;;;;0.21;81.05;101686.69;5072722;28;20436;-77
2022/12/04 02:44:45;;;;;;;40.80;15.47;;;;;;;0.20;81.59;101684.94;5093831;28;20085;-77
2022/12/04 02:47:16;;;;;;;37.53;15.10;;;;;;;0.20;81.18;101692.63;5073309;28;20376;-77
2022/12/04 02:49:49;;;;;;;37.37;15.00;;;;;;;0.16;81.42;101693.38;5073299;28;20021;-77
2022/12/04 02:52:19;;;;;;;42.63;16.70;;;;;;;0.16;81.34;101693.38;5069999;28;20115;-77
2022/12/04 02:54:50;;;;;;;44.00;17.30;;;;;;;0.14;81.55;101681.41;5065254;28;20028;-77
2022/12/04 02:57:20;;;;;;;41.87;16.70;;;;;;;0.16;81.37;101683.13;5072610;28;20028;-77
2022/12/04 02:59:49;;;;;;;41.43;16.17;;;;;;;0.16;81.91;101683.13;5073160;28;20032;-77
2022/12/04 03:02:24;;;;;;;44.50;16.53;;;;;;;0.16;81.48;101673.75;5071621;28;20055;-77
2022/12/04 03:04:53;;;;;;;40.20;16.30;;;;;;;0.13;81.37;101673.66;5072901;28;20107;-77
2022/12/04 03:07:32;;;;;;;47.27;17.80;;;;;;;0.12;81.98;101675.38;5072811;28;20025;-77
2022/12/04 03:10:18;;;;;;;40.53;15.90;;;;;;;0.14;81.41;101671.16;5073499;28;20094;-77
2022/12/04 03:12:43;;;;;;;43.13;17.00;;;;;;;0.15;81.68;101672.03;5074064;28;20028;-77
2022/12/04 03:15:18;;;;;;;39.77;16.30;;;;;;;0.17;81.31;101675.50;5077337;28;20039;-77
2022/12/04 03:17:54;;;;;;;40.47;15.40;;;;;;;0.19;81.68;101684.09;5076269;28;20031;-77
2022/12/04 03:20:20;;;;;;;44.00;16.80;;;;;;;0.21;81.26;101671.34;5084570;28;21139;-77
2022/12/04 03:22:53;;;;;;;43.93;16.90;;;;;;;0.23;81.25;101677.38;5093335;28;20032;-77
2022/12/04 03:25:20;;;;;;;43.97;16.67;;;;;;;0.21;81.45;101676.44;5093382;28;20028;-77
2022/12/04 03:27:53;;;;;;;44.03;16.27;;;;;;;0.22;81.30;101680.75;5089660;28;20026;-77
2022/12/04 03:30:21;;;;;;;39.23;15.77;;;;;;;0.18;81.25;101676.34;5084808;28;20082;-77
2022/12/04 03:32:58;;;;;;;39.80;15.07;;;;;;;0.19;81.21;101672.97;5072564;28;20095;-77
2022/12/04 03:35:51;;;;;;;42.57;16.57;;;;;;;0.18;81.88;101674.69;5072767;28;20032;-77
2022/12/04 03:38:32;;;;;;;38.40;15.53;;;;;;;0.20;81.56;101677.28;5072503;28;20028;-77
2022/12/04 03:41:20;;;;;;;39.17;14.80;;;;;;;0.20;81.59;101669.59;5064190;28;20078;-77
2022/12/04 03:44:18;;;;;;;38.53;15.33;;;;;;;0.20;81.55;101669.59;5054666;28;20313;-77
2022/12/04 03:47:07;;;;;;;43.00;16.20;;;;;;;0.20;81.60;101664.47;5058717;28;20047;-77
2022/12/04 03:49:48;;;;;;;37.87;14.77;;;;;;;0.18;81.48;101663.56;5072819;28;20037;-77
2022/12/04 03:52:21;;;;;;;41.37;16.27;;;;;;;0.18;81.72;101661.88;5072094;28;20458;-77
2022/12/04 03:54:51;;;;;;;40.63;16.07;;;;;;;0.20;81.70;101661.91;5072442;28;20063;-77
2022/12/04 03:57:24;;;;;;;38.57;15.47;;;;;;;0.22;81.23;101662.84;5066533;28;20040;-77
2022/12/04 04:00:01;;;;;;;41.93;15.23;;;;;;;0.25;81.71;101670.63;5076655;28;20039;-77
2022/12/04 04:02:32;;;;;;;44.37;16.67;;;;;;;0.23;81.13;101669.69;5081484;28;20422;-77
2022/12/04 04:04:59;;;;;;;42.53;17.27;;;;;;;0.21;81.23;101666.22;5072340;28;20043;-77
2022/12/04 04:07:31;;;;;;;45.43;18.40;;;;;;;0.20;81.00;101661.91;5063475;28;20047;-77
2022/12/04 04:10:01;;;;;;;44.67;17.45;;;;;;;0.17;81.31;101656.72;5072436;28;20032;-77
2022/12/04 04:12:31;;;;;;;46.57;17.70;;;;;;;0.17;81.47;101664.41;5070419;28;20103;-77
2022/12/04 04:26:28;;;;;;;41.97;15.70;;;;;;;0.17;81.68;101665.25;5080546;28;20056;-76
2022/12/04 04:28:53;;;;;;;45.63;17.00;;;;;;;0.17;81.83;101664.41;5070004;28;20024;-77
2022/12/04 04:31:33;;;;;;;44.77;16.80;;;;;;;0.16;81.15;101657.56;5071979;28;20410;-77
2022/12/04 04:34:36;;;;;;;43.93;16.97;;;;;;;0.17;81.79;101654.19;5070870;28;20035;-77
2022/12/04 04:37:39;;;;;;;44.67;18.20;;;;;;;0.15;81.39;101656.66;5074766;28;20063;-77
2022/12/04 04:40:20;;;;;;;46.73;17.30;;;;;;;0.14;81.87;101650.69;5074964;28;20025;-77
2022/12/04 04:43:11;;;;;;;47.10;17.48;;;;;;;0.13;81.56;101653.19;5075657;28;20111;-77
2022/12/04 04:45:47;;;;;;;49.30;18.80;;;;;;;0.12;81.66;101661.69;5075319;28;20451;-77
2022/12/04 04:48:22;;;;;;;44.47;16.80;;;;;;;0.10;81.65;101653.97;5075443;28;20032;-77
2022/12/04 04:50:48;;;;;;;44.80;17.37;;;;;;;0.10;81.57;101664.22;5074596;28;20024;-77
2022/12/04 04:53:28;;;;;;;45.87;17.17;;;;;;;0.09;81.36;101662.47;5087168;28;20386;-77
2022/12/04 04:55:54;;;;;;;46.07;18.00;;;;;;;0.08;81.65;101659.88;5081159;28;20024;-77
2022/12/04 04:58:20;;;;;;;40.13;16.10;;;;;;;0.11;81.42;101671.06;5083959;28;20021;-77
2022/12/04 05:01:03;;;;;;;43.00;17.10;;;;;;;0.11;82.17;101659.94;5073838;28;20028;-77
2022/12/04 05:03:29;;;;;;;44.50;17.00;;;;;;;0.12;81.38;101661.69;5069700;28;20448;-77
2022/12/04 05:05:55;;;;;;;50.67;19.07;;;;;;;0.12;81.71;101657.44;5083110;28;20491;-77
2022/12/04 05:08:21;;;;;;;43.57;17.37;;;;;;;0.10;81.73;101660.75;5085816;28;20089;-77
2022/12/04 05:10:46;;;;;;;47.80;18.50;;;;;;;0.09;81.58;101662.47;5084218;28;20082;-77
2022/12/04 05:13:13;;;;;;;48.87;18.47;;;;;;;0.10;81.72;101664.22;5093284;28;20032;-77
2022/12/04 05:15:38;;;;;;;45.67;17.67;;;;;;;0.09;81.97;101662.47;5085494;28;20109;-77
2022/12/04 05:18:04;;;;;;;45.83;17.83;;;;;;;0.11;82.21;101668.50;5080024;28;20107;-77
2022/12/04 05:20:29;;;;;;;46.37;16.40;;;;;;;0.12;82.26;101665.13;5078883;28;20468;-77
2022/12/04 05:22:55;;;;;;;43.00;16.20;;;;;;;0.12;82.40;101667.69;5081217;28;20107;-77
2022/12/04 05:25:20;;;;;;;40.60;16.33;;;;;;;0.13;82.41;101674.53;5081768;28;20067;-77
2022/12/04 05:27:45;;;;;;;45.63;17.77;;;;;;;0.14;81.93;101668.59;5073921;28;20032;-77
2022/12/04 05:30:11;;;;;;;48.07;18.20;;;;;;;0.13;82.22;101669.44;5074638;28;20039;-77
2022/12/04 05:32:36;;;;;;;43.80;16.63;;;;;;;0.13;81.86;101673.66;5071983;28;20020;-77
2022/12/04 05:35:02;;;;;;;45.77;16.57;;;;;;;0.14;82.24;101672.84;5075573;28;20379;-77
2022/12/04 05:37:28;;;;;;;49.23;19.00;;;;;;;0.12;81.99;101665.13;5074809;28;20074;-77
2022/12/04 05:39:53;;;;;;;42.83;16.53;;;;;;;0.13;82.23;101669.44;5081567;28;20115;-77
2022/12/04 05:42:19;;;;;;;49.90;18.40;;;;;;;0.17;82.00;101667.81;5075114;28;20028;-77
2022/12/04 05:44:44;;;;;;;48.23;17.73;;;;;;;0.14;82.31;101663.50;5071020;28;20489;-77
2022/12/04 05:47:10;;;;;;;45.80;18.03;;;;;;;0.15;82.34;101661.78;5080658;28;20036;-77
2022/12/04 05:49:35;;;;;;;42.10;16.33;;;;;;;0.13;82.47;101659.19;5074255;28;20078;-77
2022/12/04 05:52:02;;;;;;;44.80;16.83;;;;;;;0.15;82.04;101661.78;5082278;28;20099;-77
2022/12/04 05:54:27;;;;;;;44.33;16.80;;;;;;;0.16;81.76;101657.56;5080809;28;20028;-77
2022/12/04 05:56:52;;;;;;;44.63;17.20;;;;;;;0.17;82.08;101651.63;5072265;28;20108;-77
2022/12/04 05:59:18;;;;;;;42.17;16.87;;;;;;;0.19;82.42;101652.50;5080177;28;20028;-77
2022/12/04 06:01:44;;;;;;;40.97;15.53;;;;;;;0.17;82.15;101654.19;5072023;28;20048;-77
2022/12/04 06:04:10;;;;;;;41.37;17.27;;;;;;;0.17;82.05;101654.19;5078148;28;20053;-77
2022/12/04 06:06:37;;;;;;;40.20;15.80;;;;;;;0.15;82.13;101649.00;5077317;28;20415;-77
2022/12/04 06:09:05;;;;;;;42.03;16.00;;;;;;;0.17;82.36;101643.94;5079564;28;20027;-77
2022/12/04 06:11:34;;;;;;;40.23;15.67;;;;;;;0.12;82.26;101642.09;5081076;28;20030;-77
2022/12/04 06:14:02;;;;;;;41.30;16.20;;;;;;;0.11;81.84;101640.38;5071120;28;20028;-77
2022/12/04 06:16:30;;;;;;;41.00;16.07;;;;;;;0.10;82.18;101641.19;5074046;28;20480;-77
2022/12/04 06:18:58;;;;;;;41.37;16.73;;;;;;;0.09;82.77;101643.69;5071105;28;20072;-77
2022/12/04 06:21:26;;;;;;;43.63;16.90;;;;;;;0.11;82.58;101640.38;5070913;28;20119;-77
2022/12/04 06:23:52;;;;;;;40.07;16.00;;;;;;;0.12;81.92;101646.34;5081846;28;20031;-77
2022/12/04 06:26:18;;;;;;;37.20;15.67;;;;;;;0.14;82.75;101652.38;5077066;28;20372;-77
2022/12/04 06:28:44;;;;;;;43.83;17.47;;;;;;;0.12;82.45;101647.22;5072769;28;20059;-77
2022/12/04 06:31:11;;;;;;;43.93;16.50;;;;;;;0.14;82.00;101652.38;5071293;28;20055;-77
2022/12/04 06:33:37;;;;;;;40.80;16.57;;;;;;;0.12;82.46;101652.34;5071713;28;20024;-77
2022/12/04 06:36:05;;;;;;;40.73;16.67;;;;;;;0.14;82.47;101650.69;5070877;28;20028;-77
2022/12/04 06:38:31;;;;;;;38.83;15.87;;;;;;;0.16;81.96;101649.88;5071066;28;20063;-77
2022/12/04 06:40:57;;;;;;;39.53;16.77;;;;;;;0.19;81.81;101657.63;5073664;28;20032;-77
2022/12/04 06:43:23;;;;;;;41.97;16.53;;;;;;;0.17;82.15;101655.03;5074950;28;20055;-77
2022/12/04 06:45:57;;;;;;;43.63;15.57;;;;;;;0.13;82.59;101659.19;5071647;28;20051;-77
2022/12/04 06:48:23;;;;;;;41.57;15.57;;;;;;;0.14;82.39;101654.94;5072216;28;20097;-77
2022/12/04 06:50:48;;;;;;;42.80;16.33;;;;;;;0.13;82.18;101659.19;5073585;28;20464;-77
2022/12/04 06:53:13;;;;;;;36.97;15.43;;;;;;;0.13;81.91;101655.75;5071893;28;20025;-77
2022/12/04 06:55:38;;;;;;;39.73;15.53;;;;;;;0.13;82.03;101659.19;5073072;28;20021;-77
2022/12/04 06:58:04;;;;;;;37.00;14.23;;;;;;;0.13;82.70;101663.41;5073281;28;20013;-77
2022/12/04 07:00:29;;;;;;;40.70;16.27;;;;;;;0.13;82.53;101664.31;5078595;28;20013;-77
2022/12/04 07:02:54;;;;;;;38.80;15.37;;;;;;;0.12;82.52;101662.56;5068093;28;20032;-77
2022/12/04 07:05:20;;;;;;;39.93;15.77;;;;;;;0.13;83.04;101661.75;5073344;28;20479;-77
2022/12/04 07:07:45;;;;;;;40.77;16.00;;;;;;;0.14;82.82;101670.28;5073356;28;20028;-77
2022/12/04 07:10:10;;;;;;;38.33;15.50;;;;;;;0.16;82.56;101670.34;5083637;28;20023;-77
2022/12/04 07:12:36;;;;;;;35.40;14.17;;;;;;;0.15;82.11;101674.56;5071788;28;20391;-77
2022/12/04 07:15:01;;;;;;;36.67;14.87;;;;;;;0.16;82.13;101678.88;5082606;28;20509;-77
2022/12/04 07:17:26;;;;;;;34.57;15.07;;;;;;;0.18;82.20;101673.78;5086600;28;20023;-77
2022/12/04 07:19:52;;;;;;;36.80;15.10;;;;;;;0.18;82.45;101676.34;5064512;28;20492;-76
2022/12/04 07:22:17;;;;;;;37.50;15.70;;;;;;;0.20;82.19;101687.50;5071561;28;20495;-77
2022/12/04 07:24:42;;;;;;;37.13;15.03;;;;;;;0.20;82.25;101690.06;5072866;28;20031;-77
2022/12/04 07:27:07;;;;;;;38.07;14.80;;;;;;;0.20;82.23;101695.19;5071351;28;20032;-77
2022/12/04 07:29:33;;;;;;;40.53;15.80;;;;;;;0.18;82.53;101691.69;5066405;28;20359;-77
2022/12/04 07:31:58;;;;;;;37.23;15.83;;;;;;;0.18;82.12;101694.25;5072622;28;20411;-76
2022/12/04 07:34:23;;;;;;;39.47;15.10;;;;;;;0.18;82.34;101701.94;5072368;28;20436;-77
2022/12/04 07:36:49;;;;;;;35.73;14.43;;;;;;;0.20;82.25;101700.31;5077514;28;20024;-77
2022/12/04 07:39:14;;;;;;;33.53;14.17;;;;;;;0.18;82.17;101696.81;5089715;28;20065;-77
2022/12/04 07:41:39;;;;;;;34.23;13.17;;;;;;;0.18;82.53;101694.25;5072606;28;20099;-77
2022/12/04 07:44:05;;;;;;;30.83;13.00;;;;;;;0.20;82.66;101695.19;5069470;28;20036;-77
2022/12/04 07:46:30;;;;;;;34.93;13.73;;;;;;;0.22;82.71;101691.00;5069752;28;20037;-77
2022/12/04 07:48:57;;;;;;;33.87;13.90;;;;;;;0.22;82.47;101689.31;5083087;28;20029;-77
2022/12/04 07:51:25;;;;;;;33.70;14.17;;;;;;;0.22;82.86;101693.53;5072221;28;20373;-77
2022/12/04 07:53:52;;;;;;;34.80;13.87;;;;;;;0.22;82.63;101693.53;5072313;28;20028;-77
2022/12/04 07:56:18;;;;;;;34.20;14.43;;;;;;;0.22;82.40;101698.66;5071037;28;20020;-77
2022/12/04 07:58:44;;;;;;;33.60;14.30;;;;;;;0.23;82.58;101697.84;5069305;28;20344;-77
2022/12/04 08:01:12;;;;;;;31.87;13.37;;;;;;;0.25;83.03;101703.88;5067101;28;20021;-77
2022/12/04 08:03:39;;;;;;;32.07;13.10;;;;;;;0.28;82.48;101698.88;5071487;28;20046;-77
2022/12/04 08:06:05;;;;;;;32.47;14.20;;;;;;;0.27;82.76;101704.81;5076556;28;20047;-77
2022/12/04 08:08:32;;;;;;;32.33;12.70;;;;;;;0.29;82.32;101708.28;5074243;28;20510;-77
2022/12/04 08:10:57;;;;;;;29.90;12.37;;;;;;;0.30;82.38;101705.75;5080941;28;20152;-77
2022/12/04 08:13:22;;;;;;;33.27;13.27;;;;;;;0.33;82.04;101707.56;5073082;28;20468;-77
2022/12/04 08:15:48;;;;;;;33.90;13.47;;;;;;;0.33;82.24;101715.25;5074350;28;20468;-77
2022/12/04 08:18:13;;;;;;;37.27;15.23;;;;;;;0.34;82.10;101713.53;5083637;28;20020;-77
2022/12/04 08:20:38;;;;;;;31.77;13.00;;;;;;;0.37;82.59;101713.63;5077679;28;20074;-77
2022/12/04 08:23:04;;;;;;;32.40;13.47;;;;;;;0.36;82.34;101720.44;5068717;28;20079;-77
2022/12/04 08:25:29;;;;;;;31.60;12.70;;;;;;;0.36;82.40;101712.75;5075041;28;20043;-77
2022/12/04 08:27:54;;;;;;;31.47;13.37;;;;;;;0.36;82.08;101720.44;5074134;28;20047;-77
2022/12/04 08:30:19;;;;;;;32.37;13.73;;;;;;;0.38;81.75;101716.22;5070136;28;20040;-77
2022/12/04 08:32:45;;;;;;;29.47;13.40;;;;;;;0.38;82.09;101715.38;5075386;28;20098;-77
2022/12/04 08:35:10;;;;;;;32.10;13.43;;;;;;;0.40;82.56;101713.72;5075799;28;20029;-77
2022/12/04 08:37:35;;;;;;;31.87;13.70;;;;;;;0.41;82.50;101711.19;5073159;28;20112;-77
2022/12/04 08:40:01;;;;;;;28.47;12.07;;;;;;;0.43;82.52;101704.44;5071562;28;20030;-77
2022/12/04 08:42:26;;;;;;;32.80;13.30;;;;;;;0.45;82.46;101715.59;5074227;28;22124;-77
2022/12/04 08:44:51;;;;;;;29.57;12.07;;;;;;;0.48;82.19;101707.13;5075402;28;20028;-77
2022/12/04 08:47:17;;;;;;;30.20;12.47;;;;;;;0.50;82.35;101704.63;5074325;28;20156;-77
2022/12/04 08:49:42;;;;;;;29.47;12.13;;;;;;;0.52;82.17;101702.97;5074253;28;20483;-77
2022/12/04 08:52:07;;;;;;;29.70;12.40;;;;;;;0.53;81.81;101694.47;5067537;28;20028;-77
2022/12/04 08:54:33;;;;;;;29.13;12.40;;;;;;;0.54;82.22;101691.97;5069100;28;20119;-77
2022/12/04 08:56:58;;;;;;;28.60;12.53;;;;;;;0.57;82.30;101688.63;5065397;28;20050;-78
2022/12/04 08:59:23;;;;;;;31.60;12.93;;;;;;;0.63;81.59;101690.47;5068954;28;20144;-77
2022/12/04 09:01:50;;;;;;;26.83;12.13;;;;;;;0.65;81.74;101694.84;5068324;28;20028;-76
2022/12/04 09:04:16;;;;;;;35.40;13.53;;;;;;;0.69;81.25;101696.66;5066000;28;20032;-76
2022/12/04 09:06:41;;;;;;;30.93;12.63;;;;;;;0.69;81.75;101695.78;5066092;28;20028;-77
2022/12/04 09:09:06;;;;;;;31.10;13.20;;;;;;;0.69;81.58;101696.66;5069636;28;20051;-77
2022/12/04 09:11:32;;;;;;;30.70;13.13;;;;;;;0.72;81.55;101704.41;5065724;28;20094;-77
2022/12/04 09:13:57;;;;;;;27.50;12.90;;;;;;;0.74;81.56;101694.25;5063744;28;20494;-76
2022/12/04 09:16:24;;;;;;;31.60;13.37;;;;;;;0.74;81.52;101705.34;5068200;28;20040;-77
2022/12/04 09:18:49;;;;;;;31.93;13.20;;;;;;;0.72;80.88;101703.56;5067796;28;20064;-77
2022/12/04 09:21:17;;;;;;;29.47;12.23;;;;;;;0.70;81.04;101697.53;5067955;28;20071;-76
2022/12/04 09:23:42;;;;;;;28.63;12.40;;;;;;;0.69;81.18;101709.44;5065724;28;20029;-77
2022/12/04 09:26:20;;;;;;;29.67;12.17;;;;;;;0.67;80.80;101712.81;5067454;28;20398;-77
2022/12/04 09:28:46;;;;;;;27.97;11.80;;;;;;;0.64;80.79;101710.16;5064539;28;20037;-77
2022/12/04 09:31:11;;;;;;;28.13;11.87;;;;;;;0.60;81.07;101709.19;5067236;28;20102;-77
2022/12/04 09:33:36;;;;;;;24.93;10.70;;;;;;;0.57;81.05;101714.22;5066829;28;20075;-77
2022/12/04 09:36:02;;;;;;;26.27;10.73;;;;;;;0.56;80.93;101720.16;5067434;28;20464;-77
2022/12/04 09:38:28;;;;;;;26.20;11.47;;;;;;;0.54;80.81;101715.00;5066425;28;20017;-77
2022/12/04 09:41:14;;;;;;;25.37;10.87;;;;;;;0.52;80.66;101718.31;5067631;28;20036;-77
2022/12/04 09:43:46;;;;;;;27.80;11.80;;;;;;;0.53;80.15;101720.06;5065191;28;20036;-77
2022/12/04 09:46:18;;;;;;;28.17;11.80;;;;;;;0.50;80.43;101714.88;5064352;28;20171;-77
2022/12/04 09:48:47;;;;;;;26.00;11.05;;;;;;;0.44;80.13;101716.41;5066865;28;20131;-77
2022/12/04 09:51:17;;;;;;;28.83;11.47;;;;;;;0.47;80.24;101714.78;5067817;28;20365;-77
2022/12/04 09:53:56;;;;;;;23.87;10.93;;;;;;;0.45;80.76;101712.16;5061775;28;20072;-77
2022/12/04 09:56:26;;;;;;;25.17;10.90;;;;;;;0.43;80.19;101707.00;5061982;28;20024;-77
2022/12/04 09:58:58;;;;;;;24.83;10.90;;;;;;;0.44;80.83;101710.41;5065437;28;20024;-76
2022/12/04 10:01:43;;;;;;;27.33;11.73;;;;;;;0.43;80.70;101714.69;5065765;28;20073;-77
2022/12/04 10:04:10;;;;;;;22.97;10.80;;;;;;;0.43;80.68;101716.34;5066450;28;20036;-76
2022/12/04 10:07:05;;;;;;;24.10;10.07;;;;;;;0.43;80.51;101713.78;5065490;28;20103;-76
2022/12/04 10:09:41;;;;;;;23.87;10.33;;;;;;;0.43;81.29;101714.69;5065662;28;20143;-77
2022/12/04 10:12:46;;;;;;;26.60;11.67;;;;;;;0.43;80.70;101712.13;5062821;28;20048;-77
2022/12/04 10:15:24;;;;;;;23.23;10.77;;;;;;;0.43;80.72;101714.69;5066570;28;20479;-77
2022/12/04 10:17:55;;;;;;;26.23;11.47;;;;;;;0.44;80.91;101706.19;5066681;28;20033;-77
2022/12/04 10:20:46;;;;;;;25.15;10.98;;;;;;;0.43;80.79;101709.56;5062497;28;20047;-77
2022/12/04 10:23:35;;;;;;;23.98;10.15;;;;;;;0.45;80.80;101713.03;5062238;28;20033;-76
2022/12/04 10:26:04;;;;;;;23.30;10.60;;;;;;;0.48;81.03;101706.28;5053677;28;20043;-77
2022/12/04 10:28:40;;;;;;;24.83;11.40;;;;;;;0.47;80.82;101712.22;5065493;28;20025;-76
2022/12/04 10:31:11;;;;;;;24.20;10.50;;;;;;;0.46;81.11;101711.34;5061946;28;20048;-76
2022/12/04 10:33:57;;;;;;;28.50;11.85;;;;;;;0.46;80.97;101713.91;5063724;28;20024;-76
2022/12/04 10:36:29;;;;;;;25.00;11.07;;;;;;;0.46;80.80;101713.91;5065462;28;20032;-77
2022/12/04 10:38:57;;;;;;;23.30;11.13;;;;;;;0.47;81.26;101707.97;5063959;28;20032;-76
2022/12/04 10:41:39;;;;;;;26.63;11.47;;;;;;;0.50;81.17;101709.75;5063642;28;20434;-76
2022/12/04 10:44:05;;;;;;;;;;;;;;;0.52;81.01;101708.97;5064822;28;20025;-78
2022/12/04 10:46:33;;;;;;;28.27;12.40;;;;;;;0.50;80.71;101710.63;5064045;28;19970;-76
2022/12/04 10:49:01;;;;;;;24.13;11.03;;;;;;;0.51;80.79;101716.63;5059895;28;20032;-77
2022/12/04 10:51:34;;;;;;;22.67;10.87;;;;;;;0.49;80.98;101713.13;5064230;28;20032;-76
2022/12/04 10:53:59;;;;;;;21.70;10.83;;;;;;;0.50;80.97;101704.63;5063037;28;20067;-77
2022/12/04 10:56:25;;;;;;;26.80;11.50;;;;;;;0.54;81.31;101711.56;5062437;28;20032;-77
2022/12/04 10:59:04;;;;;;;22.57;10.23;;;;;;;0.57;81.20;101714.22;5062496;28;20028;-77
2022/12/04 11:01:32;;;;;;;25.03;11.60;;;;;;;0.56;80.73;101702.25;5063868;28;20114;-77
2022/12/04 11:04:22;;;;;;;25.30;11.30;;;;;;;0.57;80.84;101696.28;5064095;28;20804;-77
2022/12/04 11:06:51;;;;;;;23.33;10.57;;;;;;;0.56;81.06;101689.44;5060389;28;20511;-77
2022/12/04 11:09:23;;;;;;;22.07;11.03;;;;;;;0.53;80.98;101690.22;5059906;28;20028;-77
2022/12/04 11:11:50;;;;;;;21.37;10.20;;;;;;;0.55;80.79;101687.69;5058882;28;20038;-76
2022/12/04 11:14:19;;;;;;;22.03;10.57;;;;;;;0.57;81.12;101686.94;5064529;28;20039;-76
2022/12/04 11:16:49;;;;;;;21.20;10.17;;;;;;;0.59;80.98;101674.16;5062188;28;20127;-77
2022/12/04 11:19:24;;;;;;;20.90;10.00;;;;;;;0.63;81.09;101676.00;5061831;28;20554;-76
2022/12/04 11:21:51;;;;;;;22.23;10.80;;;;;;;0.64;81.44;101669.16;5062018;28;20036;-77
2022/12/04 11:24:21;;;;;;;21.07;10.70;;;;;;;0.64;80.93;101667.50;5059969;28;20073;-76
2022/12/04 11:26:47;;;;;;;23.07;10.27;;;;;;;0.63;80.84;101670.88;5057538;28;20031;-77
2022/12/04 11:29:16;;;;;;;22.77;10.90;;;;;;;0.64;80.80;101676.84;5059180;28;20032;-77
2022/12/04 11:31:47;;;;;;;24.60;10.50;;;;;;;0.64;80.36;101672.63;5062036;28;20046;-76
2022/12/04 11:34:19;;;;;;;23.02;10.98;;;;;;;0.64;80.79;101675.19;5064305;28;20750;-76
2022/12/04 11:36:51;;;;;;;23.80;10.70;;;;;;;0.65;81.03;101670.91;5060876;28;20071;-77
2022/12/04 11:39:24;;;;;;;21.70;10.57;;;;;;;0.64;80.79;101667.50;5059525;28;20074;-77
2022/12/04 11:42:22;;;;;;;22.77;11.37;;;;;;;0.66;81.07;101657.28;5063680;28;20078;-76